Decoded Metar for EYKA (KAUNAS in LITHUANIA) (IATA:N/A) | Meteo·Mobile Aviation Weather
aviador You're here:

EYKA Decoded Metar

KAUNAS in LITHUANIA
Report Time2019-04-25 12:20:00
UTC Time2019-04-25 12:27:21
Flight Rules vfr VFR
Wind150° at 12 kt
W.Decomp.*RWY 08: 5.3 kt HW 10.8 kt RCW
Visibility9999 m
Phenomena:N/A
Clouds:N/A
Expected CloudBase > 6,400 ft AGL from Temp-Dew spread
CeilingNone
Temp22°C (ISA +8)
Dew Point06°C (36% RH)
AAT16.8°C
QNH1018 hPa
Density Alt1,089 ft
Elevation253 ft
Report Wrong Elevation
Raw Report
EYKA 251220Z 15012KT 120V190 CAVOK 22/06 Q1018=

Extra information for EYKA:More info

Metar Taf Metar & Taf Last 4 Metars F.Rules Stats Wind Profile Meteogram Temp Stats Airport Information Weather charts Add Link Nearby VenuesMetar ALERT Operation Metar Decoded Social comments